createdAt,value
2018-09-15T00:00:24.426Z,7.07
2018-09-15T00:03:55.646Z,3.77
2018-09-15T00:06:23.872Z,5.80
2018-09-15T00:08:52.079Z,6.03
2018-09-15T00:11:20.404Z,6.53
2018-09-15T00:13:48.595Z,5.63
2018-09-15T00:16:16.795Z,9.13
2018-09-15T00:18:44.999Z,7.60
2018-09-15T00:21:13.278Z,8.90
2018-09-15T00:23:41.653Z,7.13
2018-09-15T00:26:09.912Z,6.53
2018-09-15T00:28:38.210Z,9.07
2018-09-15T00:31:06.403Z,10.70
2018-09-15T00:33:34.596Z,4.90
2018-09-15T00:36:02.822Z,8.00
2018-09-15T00:38:31.183Z,5.70
2018-09-15T00:40:59.368Z,5.93
2018-09-15T00:43:27.534Z,8.47
2018-09-15T00:45:55.720Z,8.23
2018-09-15T00:48:23.691Z,4.70
2018-09-15T00:50:51.990Z,10.13
2018-09-15T00:53:20.186Z,9.93
2018-09-15T00:55:48.426Z,7.00
2018-09-15T00:58:16.602Z,10.93
2018-09-15T01:00:44.886Z,9.87
2018-09-15T01:03:13.143Z,10.27
2018-09-15T01:05:41.344Z,22.03
2018-09-15T01:08:09.539Z,11.70
2018-09-15T01:10:37.727Z,7.27
2018-09-15T01:13:05.913Z,5.70
2018-09-15T01:15:34.126Z,9.30
2018-09-15T01:18:02.379Z,5.23
2018-09-15T01:20:30.670Z,13.63
2018-09-15T01:22:58.947Z,6.50
2018-09-15T01:25:27.214Z,6.40
2018-09-15T01:27:55.391Z,4.37
2018-09-15T01:30:23.703Z,6.90
2018-09-15T01:32:51.894Z,5.13
2018-09-15T01:35:20.190Z,23.33
2018-09-15T01:37:48.371Z,8.83
2018-09-15T01:40:16.563Z,6.43
2018-09-15T01:42:44.852Z,8.90
2018-09-15T01:45:13.027Z,7.90
2018-09-15T01:47:41.326Z,5.37
2018-09-15T01:50:09.579Z,5.90
2018-09-15T01:53:41.034Z,16.63
2018-09-15T01:56:09.457Z,4.37
2018-09-15T01:58:37.631Z,5.93
2018-09-15T02:01:05.843Z,8.70
2018-09-15T02:03:34.028Z,8.43
2018-09-15T02:06:02.319Z,8.77
2018-09-15T02:08:30.599Z,7.50
2018-09-15T02:10:58.819Z,6.37
2018-09-15T02:13:27.037Z,9.03
2018-09-15T02:15:55.206Z,7.23
2018-09-15T02:18:23.483Z,5.23
2018-09-15T02:20:51.672Z,7.43
2018-09-15T02:23:19.867Z,12.00
2018-09-15T02:25:48.150Z,17.10
2018-09-15T02:28:16.353Z,8.07
2018-09-15T02:30:44.569Z,4.87
2018-09-15T02:33:12.859Z,5.40
2018-09-15T02:35:41.099Z,7.93
2018-09-15T02:38:09.445Z,7.20
2018-09-15T02:40:37.662Z,11.70
2018-09-15T02:43:05.967Z,4.70
2018-09-15T02:45:34.215Z,12.90
2018-09-15T02:48:02.428Z,7.20
2018-09-15T02:50:30.634Z,10.17
2018-09-15T02:52:58.987Z,7.60
2018-09-15T02:55:27.221Z,6.50
2018-09-15T02:57:55.491Z,4.47
2018-09-15T03:00:23.680Z,5.40
2018-09-15T03:02:51.947Z,5.80
2018-09-15T03:05:20.150Z,5.60
2018-09-15T03:07:48.419Z,6.10
2018-09-15T03:10:16.356Z,6.20
2018-09-15T03:12:44.544Z,7.30
2018-09-15T03:15:12.819Z,5.30
2018-09-15T03:17:41.015Z,7.90
2018-09-15T03:20:09.248Z,8.53
2018-09-15T03:22:37.483Z,9.30
2018-09-15T03:25:06.493Z,16.53
2018-09-15T03:27:34.736Z,8.50
2018-09-15T03:30:02.976Z,5.77
2018-09-15T03:32:31.176Z,4.47
2018-09-15T03:34:59.995Z,4.67
2018-09-15T03:37:28.286Z,5.97
2018-09-15T03:39:56.487Z,9.40
2018-09-15T03:42:24.728Z,5.07
2018-09-15T03:44:52.855Z,5.33
2018-09-15T03:47:21.045Z,5.63
2018-09-15T03:49:49.286Z,5.60
2018-09-15T03:52:17.478Z,5.07
2018-09-15T03:54:45.663Z,5.00
2018-09-15T03:57:13.890Z,18.77
2018-09-15T03:59:42.091Z,9.07
2018-09-15T04:02:10.288Z,9.00
2018-09-15T04:04:38.608Z,16.10
2018-09-15T04:07:06.830Z,18.17
2018-09-15T04:09:35.031Z,9.33
2018-09-15T04:12:03.225Z,7.00
2018-09-15T04:14:31.420Z,11.57
2018-09-15T04:16:59.386Z,7.17
2018-09-15T04:19:27.356Z,6.80
2018-09-15T04:21:55.539Z,9.60
2018-09-15T04:24:23.733Z,9.30
2018-09-15T04:26:51.919Z,17.13
2018-09-15T04:29:20.176Z,6.57
2018-09-15T04:31:48.406Z,7.80
2018-09-15T04:34:16.711Z,5.77
2018-09-15T04:36:44.892Z,5.13
2018-09-15T04:39:13.277Z,5.97
2018-09-15T04:41:41.972Z,9.23
2018-09-15T04:44:10.123Z,7.10
2018-09-15T04:46:38.343Z,8.17
2018-09-15T04:49:06.570Z,7.37
2018-09-15T04:51:41.406Z,5.80
2018-09-15T04:54:09.626Z,8.27
2018-09-15T04:56:37.815Z,6.97
2018-09-15T04:59:06.050Z,6.40
2018-09-15T05:01:34.268Z,11.13
2018-09-15T05:04:02.500Z,6.73
2018-09-15T05:06:30.819Z,6.40
2018-09-15T05:08:58.986Z,8.70
2018-09-15T05:11:27.182Z,6.90
2018-09-15T05:13:55.371Z,6.57
2018-09-15T05:16:23.599Z,8.63
2018-09-15T05:18:51.827Z,4.37
2018-09-15T05:21:19.838Z,9.90
2018-09-15T05:23:47.791Z,8.23
2018-09-15T05:26:15.988Z,7.50
2018-09-15T05:28:44.172Z,8.57
2018-09-15T05:31:12.399Z,14.03
2018-09-15T05:33:40.692Z,15.67
2018-09-15T05:36:08.972Z,8.80
2018-09-15T05:38:36.909Z,8.07
2018-09-15T05:41:05.115Z,11.10
2018-09-15T05:43:33.302Z,13.63
2018-09-15T05:46:01.494Z,4.63
2018-09-15T05:48:29.727Z,3.63
2018-09-15T05:50:57.999Z,12.57
2018-09-15T05:53:26.252Z,8.00
2018-09-15T05:55:54.522Z,6.03
2018-09-15T05:58:22.867Z,13.23
2018-09-15T06:00:51.967Z,20.07
2018-09-15T06:03:20.203Z,15.60
2018-09-15T06:05:48.920Z,38.13
2018-09-15T06:08:17.232Z,42.87
2018-09-15T06:10:45.616Z,41.03
2018-09-15T06:13:14.218Z,42.70
2018-09-15T06:15:42.667Z,42.80
2018-09-15T06:18:10.911Z,45.27
2018-09-15T06:20:39.202Z,49.50
2018-09-15T06:23:07.788Z,70.07
2018-09-15T06:25:35.862Z,72.60
2018-09-15T06:28:04.076Z,78.13
2018-09-15T06:30:32.480Z,91.83
2018-09-15T06:33:00.798Z,96.77
2018-09-15T06:35:29.048Z,82.40
2018-09-15T06:37:57.256Z,90.73
2018-09-15T06:40:25.499Z,81.33
2018-09-15T06:42:53.895Z,87.30
2018-09-15T06:45:22.150Z,69.43
2018-09-15T06:47:50.434Z,72.50
2018-09-15T06:50:18.655Z,88.53
2018-09-15T06:52:46.851Z,83.10
2018-09-15T06:55:15.154Z,79.50
2018-09-15T06:57:43.399Z,81.07
2018-09-15T07:00:11.744Z,89.80
2018-09-15T07:02:39.962Z,86.67
2018-09-15T07:05:08.172Z,89.60
2018-09-15T07:07:36.380Z,90.97
2018-09-15T07:10:04.679Z,77.43
2018-09-15T07:12:32.993Z,106.93
2018-09-15T07:15:01.236Z,99.10
2018-09-15T07:17:29.528Z,107.80
2018-09-15T07:19:57.795Z,89.43
2018-09-15T07:22:25.995Z,102.00
2018-09-15T07:24:53.972Z,114.97
2018-09-15T07:27:22.290Z,104.30
2018-09-15T07:29:50.662Z,120.17
2018-09-15T07:32:19.092Z,90.47
2018-09-15T07:34:47.456Z,92.97
2018-09-15T07:37:15.613Z,108.67
2018-09-15T07:39:43.839Z,106.47
2018-09-15T07:42:12.043Z,103.23
2018-09-15T07:44:40.408Z,111.33
2018-09-15T07:47:08.664Z,100.60
2018-09-15T07:49:37.011Z,106.17
2018-09-15T07:52:05.228Z,107.93
2018-09-15T07:54:33.447Z,102.73
2018-09-15T07:57:01.666Z,105.50
2018-09-15T07:59:29.854Z,114.80
2018-09-15T08:01:58.147Z,97.17
2018-09-15T08:04:26.508Z,98.03
2018-09-15T08:06:54.887Z,101.00
2018-09-15T08:09:23.140Z,96.17
2018-09-15T08:11:51.415Z,110.47
2018-09-15T08:14:19.636Z,104.37
2018-09-15T08:16:47.914Z,89.30
2018-09-15T08:19:16.130Z,90.07
2018-09-15T08:21:44.421Z,90.37
2018-09-15T08:24:12.692Z,90.20
2018-09-15T08:26:40.692Z,93.63
2018-09-15T08:29:08.979Z,81.87
2018-09-15T08:31:37.283Z,88.80
2018-09-15T08:34:05.569Z,86.60
2018-09-15T08:36:33.919Z,87.53
2018-09-15T08:39:02.148Z,88.43
2018-09-15T08:41:30.620Z,82.80
2018-09-15T08:43:58.869Z,81.83
2018-09-15T08:46:27.120Z,82.87
2018-09-15T08:48:55.391Z,88.60
2018-09-15T08:51:23.685Z,85.57
2018-09-15T08:53:51.893Z,94.97
2018-09-15T08:56:20.201Z,87.43
2018-09-15T08:58:48.400Z,84.97
2018-09-15T09:01:16.623Z,81.03
2018-09-15T09:03:44.920Z,76.80
2018-09-15T09:06:19.932Z,77.53
2018-09-15T09:08:48.175Z,81.47
2018-09-15T09:11:16.546Z,89.50
2018-09-15T09:13:44.936Z,79.93
2018-09-15T09:16:13.193Z,87.43
2018-09-15T09:18:41.475Z,98.00
2018-09-15T09:21:09.747Z,87.60
2018-09-15T09:23:38.020Z,88.20
2018-09-15T09:26:06.396Z,82.10
2018-09-15T09:28:34.843Z,95.37
2018-09-15T09:31:03.108Z,90.27
2018-09-15T09:33:31.488Z,90.40
2018-09-15T09:35:59.849Z,95.20
2018-09-15T09:38:28.150Z,86.17
2018-09-15T09:40:57.368Z,95.10
2018-09-15T09:43:25.763Z,89.23
2018-09-15T09:45:54.043Z,83.53
2018-09-15T09:48:22.416Z,89.73
2018-09-15T09:50:50.609Z,81.07
2018-09-15T09:53:18.873Z,79.57
2018-09-15T09:55:47.260Z,79.70
2018-09-15T09:58:15.516Z,81.43
2018-09-15T10:00:49.263Z,73.40
2018-09-15T10:03:17.528Z,77.07
2018-09-15T10:05:45.800Z,79.40
2018-09-15T10:08:14.006Z,71.83
2018-09-15T10:10:42.211Z,79.00
2018-09-15T10:13:10.521Z,75.23
2018-09-15T10:15:38.779Z,75.03
2018-09-15T10:18:07.114Z,87.47
2018-09-15T10:20:35.337Z,72.87
2018-09-15T10:23:03.552Z,62.10
2018-09-15T10:25:31.749Z,53.93
2018-09-15T10:27:59.958Z,52.83
2018-09-15T10:30:28.207Z,53.03
2018-09-15T10:32:56.251Z,57.07
2018-09-15T10:35:24.258Z,41.40
2018-09-15T10:37:52.563Z,35.67
2018-09-15T10:40:20.873Z,42.10
2018-09-15T10:42:49.099Z,38.83
2018-09-15T10:45:17.311Z,44.13
2018-09-15T10:47:45.611Z,50.90
2018-09-15T10:50:13.918Z,46.50
2018-09-15T10:52:42.132Z,56.13
2018-09-15T10:55:10.382Z,61.03
2018-09-15T10:57:38.648Z,56.13
2018-09-15T11:00:06.991Z,45.13
2018-09-15T11:02:35.304Z,44.40
2018-09-15T11:05:03.524Z,40.57
2018-09-15T11:07:31.740Z,34.00
2018-09-15T11:10:00.042Z,31.23
2018-09-15T11:12:28.305Z,32.63
2018-09-15T11:14:56.512Z,31.20
2018-09-15T11:17:24.795Z,28.40
2018-09-15T11:19:53.070Z,25.70
2018-09-15T11:22:21.291Z,23.50
2018-09-15T11:24:49.487Z,22.40
2018-09-15T11:27:17.722Z,19.30
2018-09-15T11:29:45.924Z,20.23
2018-09-15T11:32:14.258Z,20.27
2018-09-15T11:34:42.496Z,19.80
2018-09-15T11:37:10.828Z,15.63
2018-09-15T11:39:39.029Z,17.40
2018-09-15T11:42:07.232Z,17.20
2018-09-15T11:44:35.434Z,22.73
2018-09-15T11:47:03.718Z,15.50
2018-09-15T11:49:31.924Z,15.67
2018-09-15T11:52:00.170Z,18.00
2018-09-15T11:54:28.360Z,16.37
2018-09-15T11:56:56.564Z,19.97
2018-09-15T11:59:24.843Z,22.00
2018-09-15T12:01:53.322Z,27.57
2018-09-15T12:04:21.590Z,14.37
2018-09-15T12:06:49.932Z,20.43
2018-09-15T12:09:18.124Z,21.07
2018-09-15T12:11:46.331Z,22.20
2018-09-15T12:14:14.581Z,25.07
2018-09-15T12:16:42.915Z,23.73
2018-09-15T12:19:11.103Z,20.33
2018-09-15T12:21:39.472Z,18.10
2018-09-15T12:24:07.622Z,20.20
2018-09-15T12:26:35.880Z,16.90
2018-09-15T12:29:04.136Z,21.60
2018-09-15T12:31:32.310Z,23.13
2018-09-15T12:34:00.635Z,28.00
2018-09-15T12:36:28.648Z,19.20
2018-09-15T12:38:56.935Z,19.60
2018-09-15T12:41:25.138Z,21.80
2018-09-15T12:43:53.360Z,22.00
2018-09-15T12:46:21.755Z,21.17
2018-09-15T12:48:50.776Z,25.30
2018-09-15T12:51:19.031Z,24.60
2018-09-15T12:53:47.260Z,22.10
2018-09-15T12:56:15.471Z,27.60
2018-09-15T12:58:43.752Z,27.10
2018-09-15T13:01:12.071Z,26.47
2018-09-15T13:03:40.394Z,28.10
2018-09-15T13:06:08.586Z,35.23
2018-09-15T13:08:36.853Z,33.90
2018-09-15T13:11:05.041Z,29.13
2018-09-15T13:13:33.344Z,28.30
2018-09-15T13:16:01.636Z,26.13
2018-09-15T13:18:29.919Z,22.70
2018-09-15T13:20:58.126Z,31.03
2018-09-15T13:23:26.328Z,24.23
2018-09-15T13:25:54.601Z,25.43
2018-09-15T13:28:29.523Z,29.70
2018-09-15T13:30:57.798Z,32.60
2018-09-15T13:33:26.004Z,30.33
2018-09-15T13:35:54.231Z,24.30
2018-09-15T13:38:22.492Z,24.37
2018-09-15T13:40:50.491Z,29.40
2018-09-15T13:43:18.699Z,23.07
2018-09-15T13:45:46.931Z,28.97
2018-09-15T13:48:15.199Z,25.30
2018-09-15T13:50:43.394Z,22.20
2018-09-15T13:53:11.666Z,23.53
2018-09-15T13:55:40.004Z,30.53
2018-09-15T13:58:08.268Z,26.37
2018-09-15T14:00:36.459Z,29.70
2018-09-15T14:03:04.812Z,25.77
2018-09-15T14:05:33.018Z,28.73
2018-09-15T14:08:01.307Z,25.73
2018-09-15T14:10:29.696Z,23.50
2018-09-15T14:12:57.946Z,27.53
2018-09-15T14:15:26.128Z,23.67
2018-09-15T14:17:54.338Z,27.70
2018-09-15T14:20:22.592Z,27.27
2018-09-15T14:22:50.820Z,26.17
2018-09-15T14:25:20.063Z,25.27
2018-09-15T14:27:48.305Z,28.93
2018-09-15T14:30:16.604Z,29.50
2018-09-15T14:32:44.896Z,20.00
2018-09-15T14:35:13.091Z,23.23
2018-09-15T14:37:41.291Z,24.93
2018-09-15T14:40:09.487Z,25.20
2018-09-15T14:42:37.558Z,23.60
2018-09-15T14:45:05.530Z,23.07
2018-09-15T14:47:33.866Z,25.10
2018-09-15T14:50:02.100Z,24.80
2018-09-15T14:52:30.303Z,29.83
2018-09-15T14:54:58.612Z,27.17
2018-09-15T14:57:26.888Z,34.00
2018-09-15T14:59:55.171Z,25.00
2018-09-15T15:02:23.371Z,27.47
2018-09-15T15:04:51.564Z,25.50
2018-09-15T15:07:19.796Z,26.37
2018-09-15T15:09:47.940Z,28.60
2018-09-15T15:12:16.196Z,21.20
2018-09-15T15:14:44.429Z,28.10
2018-09-15T15:17:12.675Z,25.00
2018-09-15T15:19:40.979Z,38.43
2018-09-15T15:22:09.128Z,28.30
2018-09-15T15:24:37.369Z,29.30
2018-09-15T15:27:05.736Z,31.30
2018-09-15T15:29:34.029Z,31.20
2018-09-15T15:32:02.237Z,24.30
2018-09-15T15:34:30.510Z,28.00
2018-09-15T15:36:58.407Z,23.93
2018-09-15T15:39:26.408Z,26.40
2018-09-15T15:41:54.623Z,25.40
2018-09-15T15:44:22.639Z,21.43
2018-09-15T15:46:50.832Z,25.07
2018-09-15T15:49:19.124Z,23.23
2018-09-15T15:51:47.632Z,29.03
2018-09-15T15:54:15.857Z,23.67
2018-09-15T15:56:44.116Z,21.43
2018-09-15T15:59:12.442Z,31.33
2018-09-15T16:01:40.619Z,21.53
2018-09-15T16:04:08.823Z,19.87
2018-09-15T16:06:37.083Z,19.43
2018-09-15T16:09:07.398Z,30.67
2018-09-15T16:11:35.875Z,19.70
2018-09-15T16:14:04.089Z,18.07
2018-09-15T16:16:32.290Z,16.50
2018-09-15T16:19:00.603Z,18.20
2018-09-15T16:21:28.811Z,20.20
2018-09-15T16:23:57.112Z,19.53
2018-09-15T16:26:25.367Z,19.90
2018-09-15T16:28:53.646Z,20.70
2018-09-15T16:31:21.850Z,21.40
2018-09-15T16:33:50.178Z,26.57
2018-09-15T16:36:18.187Z,24.30
2018-09-15T16:38:46.163Z,23.40
2018-09-15T16:41:14.363Z,25.93
2018-09-15T16:44:46.143Z,24.33
2018-09-15T16:47:14.346Z,18.93
2018-09-15T16:49:42.648Z,22.20
2018-09-15T16:52:10.885Z,21.63
2018-09-15T16:54:39.096Z,22.10
2018-09-15T16:57:07.322Z,22.73
2018-09-15T16:59:35.615Z,22.80
2018-09-15T17:02:03.588Z,23.37
2018-09-15T17:04:31.848Z,19.80
2018-09-15T17:07:00.044Z,20.60
2018-09-15T17:09:28.359Z,20.57
2018-09-15T17:11:56.559Z,20.30
2018-09-15T17:14:27.783Z,28.93
2018-09-15T17:16:56.023Z,22.40
2018-09-15T17:19:24.586Z,21.33
2018-09-15T17:21:52.895Z,24.67
2018-09-15T17:24:21.099Z,22.50
2018-09-15T17:26:49.314Z,26.13
2018-09-15T17:29:17.524Z,25.87
2018-09-15T17:31:45.775Z,26.20
2018-09-15T17:34:13.994Z,28.90
2018-09-15T17:36:42.311Z,20.27
2018-09-15T17:39:11.897Z,28.47
2018-09-15T17:41:40.099Z,26.13
2018-09-15T17:44:08.445Z,18.87
2018-09-15T17:46:36.760Z,22.57
2018-09-15T17:49:05.096Z,22.97
2018-09-15T17:51:33.367Z,28.10
2018-09-15T17:54:01.544Z,22.20
2018-09-15T17:56:29.756Z,24.93
2018-09-15T17:58:57.958Z,23.70
2018-09-15T18:01:26.227Z,25.03
2018-09-15T18:03:54.512Z,25.83
2018-09-15T18:06:22.731Z,18.73
2018-09-15T18:08:51.624Z,32.03
2018-09-15T18:11:19.835Z,24.27
2018-09-15T18:13:48.327Z,21.27
2018-09-15T18:16:16.659Z,26.17
2018-09-15T18:18:44.981Z,22.67
2018-09-15T18:21:13.184Z,26.40
2018-09-15T18:23:41.412Z,34.13
2018-09-15T18:26:09.679Z,24.43
2018-09-15T18:28:37.875Z,28.10
2018-09-15T18:31:06.231Z,20.20
2018-09-15T18:33:34.613Z,35.57
2018-09-15T18:36:03.083Z,37.13
2018-09-15T18:38:31.283Z,30.33
2018-09-15T18:40:59.576Z,30.10
2018-09-15T18:43:27.860Z,30.30
2018-09-15T18:45:56.187Z,24.73
2018-09-15T18:48:24.407Z,37.00
2018-09-15T18:50:52.636Z,28.40
2018-09-15T18:53:20.820Z,40.03
2018-09-15T18:55:49.056Z,28.07
2018-09-15T18:58:17.283Z,31.50
2018-09-15T19:00:45.660Z,25.17
2018-09-15T19:03:14.904Z,35.73
2018-09-15T19:05:43.598Z,25.97
2018-09-15T19:08:11.653Z,27.43
2018-09-15T19:10:39.964Z,23.93
2018-09-15T19:13:08.309Z,27.27
2018-09-15T19:15:36.560Z,26.33
2018-09-15T19:18:04.819Z,26.17
2018-09-15T19:20:33.032Z,27.33
2018-09-15T19:23:01.320Z,20.77
2018-09-15T19:25:29.805Z,18.30
2018-09-15T19:27:58.082Z,21.57
2018-09-15T19:30:26.303Z,33.87
2018-09-15T19:32:54.523Z,29.50
2018-09-15T19:35:22.764Z,23.80
2018-09-15T19:37:50.983Z,22.70
2018-09-15T19:40:19.215Z,23.63
2018-09-15T19:42:47.443Z,23.00
2018-09-15T19:45:15.663Z,24.27
2018-09-15T19:47:43.872Z,21.30
2018-09-15T19:50:12.091Z,26.80
2018-09-15T19:52:40.299Z,18.23
2018-09-15T19:55:08.517Z,19.13
2018-09-15T19:57:36.876Z,21.07
2018-09-15T20:00:05.128Z,27.57
2018-09-15T20:02:33.589Z,23.53
2018-09-15T20:05:01.887Z,21.53
2018-09-15T20:07:30.180Z,24.60
2018-09-15T20:09:58.442Z,26.50
2018-09-15T20:12:26.687Z,21.33
2018-09-15T20:14:54.968Z,19.30
2018-09-15T20:17:22.188Z,23.73
2018-09-15T20:19:49.504Z,23.40
2018-09-15T20:22:17.827Z,25.80
2018-09-15T20:24:46.253Z,23.40
2018-09-15T20:27:14.588Z,23.03
2018-09-15T20:29:42.833Z,32.83
2018-09-15T20:32:11.100Z,22.97
2018-09-15T20:34:39.322Z,25.43
2018-09-15T20:37:07.752Z,22.77
2018-09-15T20:39:36.055Z,26.53
2018-09-15T20:42:04.376Z,21.20
2018-09-15T20:44:32.697Z,17.63
2018-09-15T20:47:01.005Z,21.43
2018-09-15T20:49:29.297Z,38.53
2018-09-15T20:51:57.507Z,25.60
2018-09-15T20:54:25.723Z,22.17
2018-09-15T20:56:54.024Z,24.10
2018-09-15T20:59:22.290Z,20.30
2018-09-15T21:01:50.633Z,26.40
2018-09-15T21:04:19.041Z,28.00
2018-09-15T21:06:47.320Z,24.07
2018-09-15T21:09:15.526Z,24.00
2018-09-15T21:11:43.779Z,22.60
2018-09-15T21:14:12.078Z,29.47
2018-09-15T21:16:40.391Z,24.93
2018-09-15T21:19:08.656Z,30.93
2018-09-15T21:21:36.906Z,20.90
2018-09-15T21:24:05.199Z,19.93
2018-09-15T21:26:33.428Z,27.23
2018-09-15T21:29:01.700Z,17.13
2018-09-15T21:31:30.032Z,18.50
2018-09-15T21:33:58.351Z,21.23
2018-09-15T21:36:26.642Z,29.37
2018-09-15T21:38:54.923Z,24.93
2018-09-15T21:41:23.152Z,17.13
2018-09-15T21:43:51.363Z,16.30
2018-09-15T21:46:19.624Z,20.67
2018-09-15T21:48:47.888Z,19.50
2018-09-15T21:52:40.724Z,24.33
2018-09-15T21:55:08.960Z,17.43
2018-09-15T21:57:37.237Z,21.20
2018-09-15T22:00:08.114Z,32.43
2018-09-15T22:02:36.332Z,28.57
2018-09-15T22:05:04.632Z,22.13
2018-09-15T22:07:32.955Z,27.07
2018-09-15T22:10:01.151Z,20.27
2018-09-15T22:12:29.432Z,20.03
2018-09-15T22:14:57.719Z,19.80
2018-09-15T22:17:26.071Z,19.33
2018-09-15T22:19:54.292Z,20.83
2018-09-15T22:22:22.639Z,20.87
2018-09-15T22:24:50.853Z,28.50
2018-09-15T22:27:19.053Z,19.63
2018-09-15T22:29:47.419Z,19.63
2018-09-15T22:32:15.659Z,44.00
2018-09-15T22:34:43.987Z,26.90
2018-09-15T22:37:12.208Z,17.53
2018-09-15T22:39:40.513Z,17.27
2018-09-15T22:42:08.743Z,16.37
2018-09-15T22:44:37.143Z,17.07
2018-09-15T22:47:05.483Z,16.57
2018-09-15T22:49:33.698Z,20.10
2018-09-15T22:52:01.900Z,22.20
2018-09-15T22:54:30.120Z,22.23
2018-09-15T22:56:58.520Z,22.37
2018-09-15T22:59:26.884Z,19.77
2018-09-15T23:01:55.179Z,14.33
2018-09-15T23:04:23.382Z,16.33
2018-09-15T23:06:51.580Z,15.93
2018-09-15T23:09:19.883Z,19.93
2018-09-15T23:11:48.156Z,24.17
2018-09-15T23:14:16.416Z,21.43
2018-09-15T23:16:44.848Z,13.70
2018-09-15T23:19:13.127Z,13.10
2018-09-15T23:21:41.270Z,14.50
2018-09-15T23:24:09.544Z,26.27
2018-09-15T23:26:37.781Z,14.07
2018-09-15T23:29:06.023Z,13.10
2018-09-15T23:31:34.308Z,16.83
2018-09-15T23:34:02.588Z,22.93
2018-09-15T23:36:30.868Z,34.50
2018-09-15T23:38:59.059Z,23.10
2018-09-15T23:41:27.279Z,22.70
2018-09-15T23:43:55.516Z,36.60
2018-09-15T23:46:23.799Z,28.57
2018-09-15T23:48:52.067Z,30.57
2018-09-15T23:51:20.404Z,28.03
2018-09-15T23:53:48.595Z,35.00
2018-09-15T23:56:16.833Z,33.63
2018-09-15T23:58:45.107Z,38.00
